createdAt,value
2018-04-22T00:00:15.555Z,12.19
2018-04-22T00:00:48.007Z,12.19
2018-04-22T00:01:19.659Z,12.19
2018-04-22T00:01:51.273Z,12.19
2018-04-22T00:02:22.903Z,12.19
2018-04-22T00:02:54.556Z,12.19
2018-04-22T00:03:26.194Z,12.19
2018-04-22T00:03:57.824Z,12.19
2018-04-22T00:04:29.468Z,12.19
2018-04-22T00:05:02.178Z,12.19
2018-04-22T00:05:33.833Z,12.19
2018-04-22T00:06:05.478Z,12.19
2018-04-22T00:06:37.122Z,12.19
2018-04-22T00:07:08.732Z,12.19
2018-04-22T00:07:40.379Z,12.19
2018-04-22T00:08:12.027Z,12.19
2018-04-22T00:08:43.652Z,12.19
2018-04-22T00:09:15.312Z,12.19
2018-04-22T00:09:46.967Z,12.19
2018-04-22T00:10:18.607Z,12.19
2018-04-22T00:10:50.239Z,12.19
2018-04-22T00:11:21.855Z,12.19
2018-04-22T00:11:53.500Z,12.19
2018-04-22T00:12:25.152Z,11.38
2018-04-22T00:12:56.801Z,11.38
2018-04-22T00:13:28.417Z,11.38
2018-04-22T00:14:00.059Z,11.38
2018-04-22T00:14:31.674Z,11.38
2018-04-22T00:15:03.352Z,11.38
2018-04-22T00:15:34.977Z,11.38
2018-04-22T00:16:12.092Z,11.38
2018-04-22T00:16:43.737Z,11.38
2018-04-22T00:17:15.384Z,11.38
2018-04-22T00:17:47.041Z,11.38
2018-04-22T00:18:18.683Z,11.38
2018-04-22T00:18:50.317Z,11.38
2018-04-22T00:19:21.971Z,11.38
2018-04-22T00:19:53.625Z,11.38
2018-04-22T00:20:25.256Z,11.38
2018-04-22T00:20:56.892Z,11.38
2018-04-22T00:21:28.529Z,11.38
2018-04-22T00:22:00.138Z,11.38
2018-04-22T00:22:31.757Z,11.38
2018-04-22T00:23:03.433Z,11.38
2018-04-22T00:23:35.073Z,11.38
2018-04-22T00:24:06.708Z,11.38
2018-04-22T00:24:38.341Z,11.38
2018-04-22T00:25:09.954Z,11.38
2018-04-22T00:25:41.596Z,11.38
2018-04-22T00:26:13.205Z,11.38
2018-04-22T00:26:44.823Z,11.38
2018-04-22T00:27:16.439Z,11.38
2018-04-22T00:27:48.064Z,11.38
2018-04-22T00:28:19.699Z,11.38
2018-04-22T00:28:51.324Z,11.38
2018-04-22T00:29:22.959Z,11.38
2018-04-22T00:29:54.570Z,11.38
2018-04-22T00:30:26.203Z,11.38
2018-04-22T00:30:57.818Z,11.38
2018-04-22T00:31:29.487Z,11.38
2018-04-22T00:32:01.104Z,11.38
2018-04-22T00:32:32.738Z,11.38
2018-04-22T00:33:04.370Z,11.38
2018-04-22T00:33:36.004Z,11.38
2018-04-22T00:34:07.642Z,11.38
2018-04-22T00:34:39.291Z,11.38
2018-04-22T00:35:11.964Z,11.38
2018-04-22T00:35:43.580Z,11.38
2018-04-22T00:36:15.223Z,11.38
2018-04-22T00:36:46.840Z,11.38
2018-04-22T00:37:18.466Z,11.38
2018-04-22T00:37:50.146Z,11.38
2018-04-22T00:38:22.794Z,11.38
2018-04-22T00:38:54.411Z,11.38
2018-04-22T00:39:26.044Z,11.38
2018-04-22T00:39:57.668Z,11.38
2018-04-22T00:40:29.274Z,11.38
2018-04-22T00:41:00.900Z,11.38
2018-04-22T00:41:32.524Z,11.38
2018-04-22T00:42:04.187Z,11.38
2018-04-22T00:42:35.840Z,11.38
2018-04-22T00:43:07.505Z,11.38
2018-04-22T00:43:39.151Z,11.38
2018-04-22T00:44:10.772Z,11.38
2018-04-22T00:44:42.398Z,11.38
2018-04-22T00:45:14.064Z,11.38
2018-04-22T00:45:45.716Z,11.38
2018-04-22T00:46:17.335Z,11.38
2018-04-22T00:46:48.994Z,11.38
2018-04-22T00:47:20.632Z,11.38
2018-04-22T00:47:52.257Z,11.38
2018-04-22T00:48:23.886Z,11.38
2018-04-22T00:48:55.517Z,11.38
2018-04-22T00:49:27.342Z,11.38
2018-04-22T00:49:58.965Z,11.38
2018-04-22T00:50:30.667Z,11.38
2018-04-22T00:51:02.307Z,11.38
2018-04-22T00:51:33.926Z,11.38
2018-04-22T00:52:05.554Z,11.38
2018-04-22T00:52:37.159Z,11.38
2018-04-22T00:53:08.821Z,11.38
2018-04-22T00:53:58.951Z,11.38
2018-04-22T00:54:30.525Z,11.38
2018-04-22T00:55:02.152Z,11.38
2018-04-22T00:55:33.779Z,11.38
2018-04-22T00:56:05.413Z,11.38
2018-04-22T00:56:37.053Z,11.38
2018-04-22T00:57:08.696Z,11.38
2018-04-22T00:57:40.463Z,11.38
2018-04-22T00:58:12.073Z,11.38
2018-04-22T00:58:43.703Z,11.38
2018-04-22T00:59:15.342Z,11.38
2018-04-22T00:59:46.991Z,11.38
2018-04-22T01:00:18.599Z,11.38
2018-04-22T01:00:50.242Z,11.38
2018-04-22T01:01:21.883Z,11.38
2018-04-22T01:01:53.499Z,11.38
2018-04-22T01:02:25.205Z,11.38
2018-04-22T01:02:56.819Z,11.38
2018-04-22T01:03:28.453Z,11.38
2018-04-22T01:04:00.087Z,11.38
2018-04-22T01:04:31.739Z,11.38
2018-04-22T01:05:03.386Z,11.38
2018-04-22T01:05:35.015Z,11.38
2018-04-22T01:06:06.631Z,11.38
2018-04-22T01:06:38.285Z,11.38
2018-04-22T01:07:09.938Z,11.38
2018-04-22T01:07:41.581Z,11.38
2018-04-22T01:08:13.235Z,12.00
2018-04-22T01:08:44.859Z,12.00
2018-04-22T01:09:16.497Z,12.00
2018-04-22T01:09:48.129Z,12.00
2018-04-22T01:10:19.753Z,12.00
2018-04-22T01:10:51.405Z,12.00
2018-04-22T01:11:23.065Z,12.00
2018-04-22T01:11:54.723Z,12.00
2018-04-22T01:12:26.355Z,12.00
2018-04-22T01:12:58.015Z,12.00
2018-04-22T01:13:29.655Z,12.00
2018-04-22T01:14:01.285Z,12.00
2018-04-22T01:14:32.901Z,12.00
2018-04-22T01:15:04.537Z,12.00
2018-04-22T01:15:36.190Z,12.00
2018-04-22T01:16:07.819Z,12.00
2018-04-22T01:16:39.448Z,12.00
2018-04-22T01:17:11.081Z,12.00
2018-04-22T01:17:42.697Z,12.00
2018-04-22T01:18:14.364Z,12.00
2018-04-22T01:18:45.979Z,12.00
2018-04-22T01:19:17.631Z,12.00
2018-04-22T01:19:49.309Z,12.00
2018-04-22T01:20:20.952Z,12.00
2018-04-22T01:20:52.589Z,12.00
2018-04-22T01:21:24.205Z,12.00
2018-04-22T01:21:55.830Z,12.00
2018-04-22T01:22:27.485Z,12.00
2018-04-22T01:22:59.108Z,12.00
2018-04-22T01:23:30.745Z,12.00
2018-04-22T01:24:02.379Z,12.00
2018-04-22T01:24:34.020Z,12.00
2018-04-22T01:25:05.679Z,12.00
2018-04-22T01:25:37.614Z,12.00
2018-04-22T01:26:09.315Z,12.00
2018-04-22T01:26:40.956Z,12.00
2018-04-22T01:27:12.590Z,12.00
2018-04-22T01:27:44.203Z,12.00
2018-04-22T01:28:15.846Z,12.00
2018-04-22T01:28:47.476Z,12.00
2018-04-22T01:29:19.076Z,12.00
2018-04-22T01:29:50.716Z,12.00
2018-04-22T01:30:22.368Z,12.00
2018-04-22T01:30:54.002Z,12.00
2018-04-22T01:31:25.628Z,12.00
2018-04-22T01:31:57.256Z,12.00
2018-04-22T01:32:28.885Z,12.00
2018-04-22T01:33:00.499Z,12.00
2018-04-22T01:33:32.136Z,12.00
2018-04-22T01:34:03.768Z,12.00
2018-04-22T01:34:35.372Z,12.00
2018-04-22T01:35:07.011Z,12.00
2018-04-22T01:35:38.677Z,12.00
2018-04-22T01:36:10.300Z,12.00
2018-04-22T01:36:41.911Z,12.00
2018-04-22T01:37:13.547Z,12.00
2018-04-22T01:37:45.175Z,12.00
2018-04-22T01:38:16.899Z,12.00
2018-04-22T01:38:48.536Z,12.00
2018-04-22T01:39:20.170Z,12.00
2018-04-22T01:39:51.808Z,12.00
2018-04-22T01:40:23.423Z,12.00
2018-04-22T01:40:55.328Z,12.00
2018-04-22T01:41:26.965Z,12.00
2018-04-22T01:41:58.598Z,12.00
2018-04-22T01:42:30.222Z,12.00
2018-04-22T01:43:01.885Z,12.00
2018-04-22T01:43:33.520Z,12.00
2018-04-22T01:44:05.166Z,12.00
2018-04-22T01:44:36.804Z,12.00
2018-04-22T01:45:08.443Z,12.00
2018-04-22T01:45:40.067Z,12.00
2018-04-22T01:46:11.704Z,12.00
2018-04-22T01:46:43.348Z,12.00
2018-04-22T01:47:14.999Z,12.00
2018-04-22T01:47:46.619Z,12.00
2018-04-22T01:48:18.245Z,12.00
2018-04-22T01:48:49.874Z,12.00
2018-04-22T01:49:21.480Z,12.00
2018-04-22T01:49:53.117Z,12.00
2018-04-22T01:50:24.738Z,12.00
2018-04-22T01:50:56.390Z,12.00
2018-04-22T01:51:28.035Z,12.00
2018-04-22T01:51:59.683Z,12.00
2018-04-22T01:52:31.294Z,12.00
2018-04-22T01:53:02.932Z,12.00
2018-04-22T01:53:34.558Z,12.00
2018-04-22T01:54:06.234Z,12.00
2018-04-22T01:54:38.651Z,12.00
2018-04-22T01:55:10.290Z,12.00
2018-04-22T01:55:41.902Z,12.00
2018-04-22T01:56:13.528Z,12.00
2018-04-22T01:56:45.140Z,12.00
2018-04-22T01:57:16.753Z,12.00
2018-04-22T01:57:48.392Z,12.00
2018-04-22T01:58:19.997Z,12.00
2018-04-22T01:58:51.641Z,12.00
2018-04-22T01:59:23.249Z,12.00
2018-04-22T01:59:54.897Z,12.00
2018-04-22T02:00:26.532Z,12.00
2018-04-22T02:00:58.157Z,12.00
2018-04-22T02:01:29.845Z,12.00
2018-04-22T02:02:01.501Z,12.00
2018-04-22T02:02:33.125Z,12.00
2018-04-22T02:03:04.771Z,12.00
2018-04-22T02:03:36.391Z,12.00
2018-04-22T02:04:07.999Z,12.00
2018-04-22T02:04:39.629Z,12.00
2018-04-22T02:05:11.258Z,12.00
2018-04-22T02:05:42.916Z,12.00
2018-04-22T02:06:14.612Z,12.00
2018-04-22T02:06:46.243Z,12.00
2018-04-22T02:07:17.885Z,12.00
2018-04-22T02:07:49.505Z,12.00
2018-04-22T02:08:21.122Z,12.00
2018-04-22T02:08:52.751Z,12.00
2018-04-22T02:09:24.391Z,12.00
2018-04-22T02:09:56.015Z,12.00
2018-04-22T02:10:27.637Z,12.00
2018-04-22T02:10:59.297Z,12.00
2018-04-22T02:11:30.925Z,12.00
2018-04-22T02:12:02.626Z,12.00
2018-04-22T02:12:34.718Z,12.00
2018-04-22T02:13:06.352Z,12.00
2018-04-22T02:13:37.993Z,12.00
2018-04-22T02:14:09.624Z,12.00
2018-04-22T02:14:41.246Z,12.00
2018-04-22T02:15:12.863Z,12.00
2018-04-22T02:15:45.114Z,12.00
2018-04-22T02:16:16.806Z,12.00
2018-04-22T02:16:48.452Z,12.00
2018-04-22T02:17:20.077Z,12.00
2018-04-22T02:17:51.705Z,12.00
2018-04-22T02:18:23.355Z,12.00
2018-04-22T02:18:55.000Z,12.00
2018-04-22T02:19:26.630Z,12.00
2018-04-22T02:19:58.332Z,12.00
2018-04-22T02:20:29.966Z,12.00
2018-04-22T02:21:01.588Z,12.00
2018-04-22T02:21:33.251Z,12.00
2018-04-22T02:22:04.896Z,12.00
2018-04-22T02:22:36.502Z,12.00
2018-04-22T02:23:08.120Z,12.00
2018-04-22T02:23:39.744Z,12.00
2018-04-22T02:24:11.354Z,12.00
2018-04-22T02:24:42.981Z,12.00
2018-04-22T02:25:14.666Z,12.00
2018-04-22T02:30:36.837Z,12.00
2018-04-22T02:31:08.440Z,12.00
2018-04-22T02:31:40.069Z,12.00
2018-04-22T02:32:11.699Z,12.00
2018-04-22T02:32:43.349Z,12.00
2018-04-22T02:33:14.951Z,12.00
2018-04-22T02:33:46.590Z,11.94
2018-04-22T02:34:18.223Z,11.94
2018-04-22T02:34:49.865Z,11.94
2018-04-22T02:35:21.499Z,11.94
2018-04-22T02:35:53.144Z,11.94
2018-04-22T02:36:24.779Z,11.94
2018-04-22T02:36:56.404Z,11.94
2018-04-22T02:37:28.035Z,11.94
2018-04-22T02:37:59.983Z,11.94
2018-04-22T02:38:31.608Z,11.94
2018-04-22T02:39:03.328Z,11.94
2018-04-22T02:39:34.991Z,11.94
2018-04-22T02:40:06.624Z,11.94
2018-04-22T02:40:38.756Z,11.81
2018-04-22T02:41:10.403Z,11.81
2018-04-22T02:41:42.012Z,11.81
2018-04-22T02:42:13.656Z,11.81
2018-04-22T02:42:45.312Z,11.81
2018-04-22T02:43:16.928Z,11.81
2018-04-22T02:43:48.551Z,11.81
2018-04-22T02:44:20.173Z,11.81
2018-04-22T02:44:51.779Z,11.81
2018-04-22T02:45:23.400Z,11.81
2018-04-22T02:45:55.048Z,11.81
2018-04-22T02:46:26.710Z,11.81
2018-04-22T02:46:58.355Z,11.81
2018-04-22T02:47:29.980Z,11.81
2018-04-22T02:48:01.588Z,11.81
2018-04-22T02:48:33.220Z,11.81
2018-04-22T02:49:04.839Z,11.81
2018-04-22T02:49:37.360Z,11.81
2018-04-22T02:50:08.979Z,11.81
2018-04-22T02:50:40.597Z,11.81
2018-04-22T02:51:12.263Z,11.81
2018-04-22T02:51:43.922Z,11.81
2018-04-22T02:52:15.543Z,11.81
2018-04-22T02:52:47.138Z,11.81
2018-04-22T02:53:18.806Z,11.81
2018-04-22T02:53:50.453Z,11.81
2018-04-22T02:54:22.074Z,11.81
2018-04-22T02:54:53.686Z,11.81
2018-04-22T02:55:25.315Z,11.81
2018-04-22T02:55:56.925Z,11.81
2018-04-22T02:56:28.557Z,11.81
2018-04-22T02:57:00.175Z,11.81
2018-04-22T02:57:31.811Z,11.81
2018-04-22T02:58:03.441Z,11.81
2018-04-22T02:58:35.041Z,11.81
2018-04-22T02:59:06.739Z,11.81
2018-04-22T02:59:38.384Z,11.81
2018-04-22T03:00:10.018Z,11.81
2018-04-22T03:00:41.626Z,11.81
2018-04-22T03:01:13.277Z,11.81
2018-04-22T03:01:44.901Z,11.81
2018-04-22T03:02:16.530Z,11.81
2018-04-22T03:02:48.148Z,11.81
2018-04-22T03:03:19.785Z,11.81
2018-04-22T03:03:51.404Z,11.81
2018-04-22T03:04:23.038Z,11.81
2018-04-22T03:04:54.656Z,11.81
2018-04-22T03:05:26.316Z,11.81
2018-04-22T03:05:57.971Z,11.81
2018-04-22T03:06:30.532Z,11.81
2018-04-22T03:07:02.154Z,11.81
2018-04-22T03:07:33.784Z,11.81
2018-04-22T03:08:05.440Z,11.81
2018-04-22T03:08:37.080Z,11.81
2018-04-22T03:09:08.706Z,11.81
2018-04-22T03:09:40.328Z,11.81
2018-04-22T03:10:11.962Z,11.81
2018-04-22T03:10:43.588Z,11.81
2018-04-22T03:11:15.215Z,11.81
2018-04-22T03:11:46.850Z,11.81
2018-04-22T03:12:18.500Z,11.81
2018-04-22T03:12:50.140Z,11.81
2018-04-22T03:13:21.758Z,11.81
2018-04-22T03:13:53.422Z,11.81
2018-04-22T03:14:25.059Z,11.81
2018-04-22T03:14:56.678Z,11.81
2018-04-22T03:15:28.292Z,11.81
2018-04-22T03:15:59.919Z,11.81
2018-04-22T03:16:31.544Z,11.81
2018-04-22T03:17:03.177Z,11.81
2018-04-22T03:17:34.912Z,11.81
2018-04-22T03:18:06.551Z,11.81
2018-04-22T03:18:38.175Z,11.81
2018-04-22T03:19:09.814Z,11.81
2018-04-22T03:19:41.477Z,11.81
2018-04-22T03:20:13.097Z,11.81
2018-04-22T03:20:44.954Z,11.81
2018-04-22T03:21:16.604Z,11.81
2018-04-22T03:21:48.233Z,11.81
2018-04-22T03:22:19.896Z,11.81
2018-04-22T03:22:51.509Z,11.81
2018-04-22T03:23:23.181Z,11.81
2018-04-22T03:23:54.811Z,11.81
2018-04-22T03:24:26.441Z,11.81
2018-04-22T03:24:58.088Z,11.81
2018-04-22T03:25:29.709Z,11.81
2018-04-22T03:26:01.311Z,11.81
2018-04-22T03:26:32.937Z,11.81
2018-04-22T03:27:04.569Z,11.81
2018-04-22T03:27:36.183Z,11.81
2018-04-22T03:28:07.803Z,11.81
2018-04-22T03:28:39.445Z,11.81
2018-04-22T03:29:11.051Z,11.81
2018-04-22T03:29:42.687Z,11.81
2018-04-22T03:30:14.303Z,11.81
2018-04-22T03:30:45.929Z,11.81
2018-04-22T03:31:17.553Z,11.81
2018-04-22T03:31:49.171Z,11.81
2018-04-22T03:42:10.821Z,11.81
2018-04-22T03:42:42.444Z,11.81
2018-04-22T03:43:14.054Z,11.81
2018-04-22T03:43:45.683Z,11.81
2018-04-22T03:44:17.292Z,11.81
2018-04-22T03:44:48.899Z,11.81
2018-04-22T03:45:20.508Z,11.81
2018-04-22T03:45:52.173Z,11.81
2018-04-22T03:46:23.808Z,11.81
2018-04-22T03:46:55.418Z,11.81
2018-04-22T03:47:27.034Z,11.81
2018-04-22T03:47:58.653Z,11.81
2018-04-22T03:48:30.278Z,11.81
2018-04-22T03:49:01.874Z,11.81
2018-04-22T03:49:33.492Z,11.81
2018-04-22T03:50:05.137Z,11.81
2018-04-22T03:50:36.761Z,11.81
2018-04-22T03:51:09.022Z,11.81
2018-04-22T03:51:40.637Z,11.81
2018-04-22T03:52:12.271Z,11.81
2018-04-22T03:52:43.902Z,11.81
2018-04-22T04:03:05.538Z,11.81
2018-04-22T04:03:37.150Z,11.81
2018-04-22T04:04:08.765Z,11.81
2018-04-22T04:04:40.385Z,11.81
2018-04-22T04:05:12.025Z,11.81
2018-04-22T04:05:43.659Z,11.81
2018-04-22T04:06:15.319Z,11.81
2018-04-22T04:16:36.982Z,11.81
2018-04-22T04:17:08.562Z,11.81
2018-04-22T04:17:40.223Z,11.81
2018-04-22T04:20:00.988Z,11.81
2018-04-22T04:20:51.100Z,11.81
2018-04-22T04:21:42.302Z,11.81
2018-04-22T04:22:32.563Z,11.81
2018-04-22T04:23:04.193Z,11.81
2018-04-22T04:24:03.709Z,11.81
2018-04-22T04:25:07.483Z,11.81
2018-04-22T04:26:09.097Z,11.81
2018-04-22T04:28:01.280Z,11.81
2018-04-22T04:28:32.896Z,11.81
2018-04-22T04:29:04.525Z,11.81
2018-04-22T04:29:36.158Z,11.81
2018-04-22T04:30:07.825Z,11.81
2018-04-22T04:30:39.459Z,11.81
2018-04-22T04:31:11.050Z,11.81
2018-04-22T04:31:42.686Z,11.81
2018-04-22T04:32:14.303Z,11.81
2018-04-22T04:32:45.917Z,11.81
2018-04-22T04:33:17.537Z,11.81
2018-04-22T04:33:49.188Z,11.81
2018-04-22T04:34:20.814Z,11.81
2018-04-22T04:34:52.439Z,11.81
2018-04-22T04:35:24.059Z,11.81
2018-04-22T04:35:55.688Z,11.81
2018-04-22T04:36:27.308Z,11.81
2018-04-22T04:36:58.941Z,11.81
2018-04-22T04:37:30.584Z,11.81
2018-04-22T04:47:52.269Z,11.81
2018-04-22T04:48:23.896Z,11.81
2018-04-22T04:48:55.548Z,11.12
2018-04-22T04:49:27.164Z,11.12
2018-04-22T04:49:58.793Z,11.12
2018-04-22T04:50:30.415Z,11.12
2018-04-22T04:51:02.051Z,11.12
2018-04-22T04:51:33.681Z,11.12
2018-04-22T04:52:05.304Z,11.12
2018-04-22T04:52:36.947Z,11.12
2018-04-22T04:53:08.583Z,11.12
2018-04-22T04:53:40.194Z,11.12
2018-04-22T04:54:11.816Z,11.12
2018-04-22T04:54:43.459Z,11.12
2018-04-22T04:55:15.114Z,11.12
2018-04-22T04:55:46.738Z,11.12
2018-04-22T04:56:18.365Z,11.12
2018-04-22T04:56:49.987Z,11.12
2018-04-22T04:57:21.641Z,11.12
2018-04-22T04:57:53.271Z,11.12
2018-04-22T04:58:24.884Z,11.12
2018-04-22T04:58:56.518Z,11.12
2018-04-22T04:59:28.181Z,11.12
2018-04-22T04:59:59.860Z,11.12
2018-04-22T05:00:31.495Z,11.12
2018-04-22T05:01:03.120Z,11.12
2018-04-22T05:01:34.756Z,11.12
2018-04-22T05:02:06.388Z,11.12
2018-04-22T05:02:38.022Z,11.12
2018-04-22T05:03:09.643Z,11.12
2018-04-22T05:03:41.296Z,11.12
2018-04-22T05:04:12.944Z,11.12
2018-04-22T05:04:44.567Z,11.12
2018-04-22T05:05:16.190Z,11.12
2018-04-22T05:05:47.812Z,11.12
2018-04-22T05:06:19.450Z,11.12
2018-04-22T05:06:51.385Z,11.12
2018-04-22T05:07:23.006Z,11.12
2018-04-22T05:07:54.631Z,11.12
2018-04-22T05:08:26.268Z,11.12
2018-04-22T05:08:57.909Z,11.12
2018-04-22T05:09:29.541Z,11.12
2018-04-22T05:10:01.153Z,11.12
2018-04-22T05:10:32.798Z,11.12
2018-04-22T05:11:04.432Z,11.12
2018-04-22T05:11:36.059Z,11.12
2018-04-22T05:12:07.680Z,11.12
2018-04-22T05:12:39.323Z,11.12
2018-04-22T05:13:10.948Z,11.12
2018-04-22T05:13:42.599Z,11.12
2018-04-22T05:14:15.202Z,11.12
2018-04-22T05:14:46.898Z,11.12
2018-04-22T05:15:18.540Z,11.12
2018-04-22T05:15:50.144Z,11.12
2018-04-22T05:16:21.792Z,11.12
2018-04-22T05:16:53.424Z,11.12
2018-04-22T05:17:25.072Z,11.12
2018-04-22T05:17:56.688Z,11.12
2018-04-22T05:18:28.320Z,11.12
2018-04-22T05:18:59.972Z,11.12
2018-04-22T05:19:31.600Z,11.12
2018-04-22T05:20:03.243Z,11.12
2018-04-22T05:20:34.864Z,11.12
2018-04-22T05:21:06.478Z,11.12
2018-04-22T05:21:38.100Z,11.12
2018-04-22T05:22:09.713Z,11.12
2018-04-22T05:22:41.377Z,11.12
2018-04-22T05:23:13.000Z,11.12
2018-04-22T05:23:44.618Z,11.12
2018-04-22T05:24:16.282Z,11.12
2018-04-22T05:24:47.934Z,11.12
2018-04-22T05:25:19.559Z,11.12
2018-04-22T05:35:41.231Z,11.12
2018-04-22T05:36:12.854Z,11.12
2018-04-22T05:36:44.464Z,11.12
2018-04-22T05:37:16.096Z,11.12
2018-04-22T05:37:47.758Z,11.12
2018-04-22T05:38:19.370Z,11.12
2018-04-22T05:38:50.996Z,11.12
2018-04-22T05:39:22.614Z,11.12
2018-04-22T05:39:54.252Z,11.12
2018-04-22T05:40:25.876Z,11.12
2018-04-22T05:40:57.558Z,11.12
2018-04-22T05:41:29.182Z,11.12
2018-04-22T05:42:00.812Z,11.12
2018-04-22T05:42:32.428Z,11.12
2018-04-22T05:43:04.072Z,11.12
2018-04-22T05:43:35.710Z,11.12
2018-04-22T05:44:07.344Z,11.12
2018-04-22T05:44:38.939Z,11.12
2018-04-22T05:45:10.572Z,11.12
2018-04-22T05:45:42.199Z,11.12
2018-04-22T05:46:13.837Z,11.12
2018-04-22T05:46:45.450Z,11.12
2018-04-22T05:47:17.098Z,11.12
2018-04-22T05:47:48.728Z,11.12
2018-04-22T05:48:20.361Z,11.12
2018-04-22T05:48:52.025Z,11.12
2018-04-22T05:49:23.674Z,11.12
2018-04-22T05:49:55.308Z,11.12
2018-04-22T05:50:26.942Z,11.12
2018-04-22T05:50:58.582Z,11.12
2018-04-22T05:51:30.240Z,11.12
2018-04-22T05:52:01.856Z,11.12
2018-04-22T05:52:33.476Z,11.12
2018-04-22T05:53:05.113Z,11.12
2018-04-22T05:53:36.754Z,11.12
2018-04-22T05:54:08.388Z,11.12
2018-04-22T05:54:40.019Z,11.12
2018-04-22T05:55:11.657Z,11.12
2018-04-22T05:55:43.265Z,11.12
2018-04-22T05:56:14.870Z,11.12
2018-04-22T05:56:46.519Z,11.12
2018-04-22T05:57:18.131Z,11.12
2018-04-22T05:57:50.454Z,11.12
2018-04-22T05:58:22.079Z,11.12
2018-04-22T05:58:53.703Z,11.12
2018-04-22T05:59:25.330Z,11.12
2018-04-22T05:59:56.958Z,11.12
2018-04-22T06:00:28.620Z,11.12
2018-04-22T06:01:00.284Z,11.12
2018-04-22T06:01:31.899Z,11.12
2018-04-22T06:02:03.585Z,11.12
2018-04-22T06:02:35.228Z,11.12
2018-04-22T06:03:06.868Z,11.12
2018-04-22T06:03:38.486Z,11.12
2018-04-22T06:04:10.092Z,11.12
2018-04-22T06:04:41.723Z,11.12
2018-04-22T06:05:14.234Z,11.12
2018-04-22T06:05:45.858Z,11.12
2018-04-22T06:06:17.492Z,11.12
2018-04-22T06:06:49.139Z,11.12
2018-04-22T06:07:20.778Z,11.12
2018-04-22T06:07:52.385Z,11.12
2018-04-22T06:08:23.996Z,11.12
2018-04-22T06:08:55.627Z,11.12
2018-04-22T06:09:27.252Z,11.12
2018-04-22T06:09:58.878Z,11.12
2018-04-22T06:10:30.510Z,11.12
2018-04-22T06:11:02.133Z,11.12
2018-04-22T06:11:33.740Z,11.12
2018-04-22T06:12:05.414Z,11.12
2018-04-22T06:12:37.062Z,11.12
2018-04-22T06:13:08.711Z,11.12
2018-04-22T06:13:40.349Z,11.12
2018-04-22T06:14:11.980Z,11.12
2018-04-22T06:14:43.611Z,11.12
2018-04-22T06:15:15.217Z,11.12
2018-04-22T06:15:46.873Z,11.12
2018-04-22T06:16:18.525Z,11.12
2018-04-22T06:16:50.160Z,11.12
2018-04-22T06:17:21.797Z,11.12
2018-04-22T06:17:53.434Z,11.12
2018-04-22T06:18:25.510Z,11.12
2018-04-22T06:18:57.146Z,11.12
2018-04-22T06:19:28.810Z,11.12
2018-04-22T06:20:00.432Z,11.12
2018-04-22T06:20:32.096Z,11.12
2018-04-22T06:21:03.748Z,11.12
2018-04-22T06:21:35.370Z,11.12
2018-04-22T06:22:06.987Z,11.12
2018-04-22T06:22:38.633Z,11.12
2018-04-22T06:23:10.257Z,11.12
2018-04-22T06:23:41.872Z,11.12
2018-04-22T06:24:13.530Z,11.12
2018-04-22T06:24:45.160Z,11.12
2018-04-22T06:25:16.850Z,11.12
2018-04-22T06:25:48.502Z,11.12
2018-04-22T06:26:20.124Z,11.12
2018-04-22T06:26:51.741Z,11.12
2018-04-22T06:27:23.378Z,11.12
2018-04-22T06:27:55.024Z,11.12
2018-04-22T06:28:26.660Z,11.12
2018-04-22T06:38:50.334Z,11.12
2018-04-22T06:39:21.926Z,11.12
2018-04-22T06:39:53.557Z,11.12
2018-04-22T06:40:25.186Z,11.12
2018-04-22T06:40:56.797Z,11.12
2018-04-22T06:41:28.414Z,11.12
2018-04-22T06:42:00.039Z,11.12
2018-04-22T06:42:31.664Z,11.12
2018-04-22T06:43:03.306Z,11.12
2018-04-22T06:43:35.875Z,11.12
2018-04-22T06:44:07.503Z,11.12
2018-04-22T06:44:39.523Z,11.12
2018-04-22T06:45:11.151Z,11.12
2018-04-22T06:45:42.763Z,11.12
2018-04-22T06:46:14.367Z,11.12
2018-04-22T06:46:46.001Z,11.12
2018-04-22T06:47:17.610Z,11.12
2018-04-22T06:47:49.231Z,11.12
2018-04-22T06:48:20.851Z,11.12
2018-04-22T06:48:52.458Z,15.50
2018-04-22T06:49:24.102Z,15.50
2018-04-22T06:49:55.732Z,15.50
2018-04-22T06:50:27.340Z,15.50
2018-04-22T06:50:58.954Z,15.50
2018-04-22T06:51:30.603Z,15.50
2018-04-22T06:52:02.230Z,15.50
2018-04-22T06:52:33.892Z,15.50
2018-04-22T06:53:05.513Z,15.50
2018-04-22T06:53:37.132Z,15.50
2018-04-22T06:54:08.751Z,15.50
2018-04-22T06:54:40.387Z,15.50
2018-04-22T06:55:12.012Z,15.50
2018-04-22T06:55:43.621Z,15.50
2018-04-22T06:56:15.262Z,15.50
2018-04-22T06:56:47.796Z,15.50
2018-04-22T06:57:19.463Z,15.50
2018-04-22T06:57:51.094Z,15.50
2018-04-22T06:58:22.716Z,15.50
2018-04-22T06:58:54.365Z,15.50
2018-04-22T06:59:25.990Z,15.50
2018-04-22T06:59:57.612Z,15.50
2018-04-22T07:00:29.223Z,15.50
2018-04-22T07:01:00.871Z,15.50
2018-04-22T07:01:32.510Z,15.50
2018-04-22T07:02:04.136Z,15.50
2018-04-22T07:02:35.753Z,15.50
2018-04-22T07:03:07.388Z,15.50
2018-04-22T07:03:39.070Z,15.50
2018-04-22T07:04:11.122Z,15.50
2018-04-22T07:04:42.732Z,15.50
2018-04-22T07:05:14.368Z,15.50
2018-04-22T07:05:45.996Z,15.50
2018-04-22T07:06:17.668Z,15.50
2018-04-22T07:06:49.318Z,15.50
2018-04-22T07:07:20.949Z,15.50
2018-04-22T07:17:42.623Z,15.50
2018-04-22T07:18:14.264Z,15.50
2018-04-22T07:18:45.900Z,15.50
2018-04-22T07:19:18.160Z,15.50
2018-04-22T07:19:49.799Z,15.50
2018-04-22T07:20:21.479Z,15.50
2018-04-22T07:20:53.110Z,15.50
2018-04-22T07:21:24.726Z,15.50
2018-04-22T07:21:56.340Z,15.50
2018-04-22T07:22:28.017Z,15.50
2018-04-22T07:22:59.656Z,15.50
2018-04-22T07:23:31.276Z,15.50
2018-04-22T07:24:03.205Z,15.50
2018-04-22T07:24:35.154Z,15.50
2018-04-22T07:25:06.780Z,15.50
2018-04-22T07:25:38.404Z,15.50
2018-04-22T07:26:10.047Z,15.50
2018-04-22T07:26:41.664Z,15.50
2018-04-22T07:27:13.292Z,15.50
2018-04-22T07:27:44.940Z,15.50
2018-04-22T07:28:16.591Z,15.50
2018-04-22T07:28:48.210Z,15.50
2018-04-22T07:29:19.907Z,15.50
2018-04-22T07:29:51.502Z,15.50
2018-04-22T07:30:23.131Z,15.50
2018-04-22T07:30:54.762Z,15.50
2018-04-22T07:31:26.374Z,15.50
2018-04-22T07:31:58.011Z,15.50
2018-04-22T07:32:29.648Z,15.50
2018-04-22T07:33:01.266Z,15.50
2018-04-22T07:33:32.898Z,15.50
2018-04-22T07:34:04.553Z,15.50
2018-04-22T07:34:36.508Z,15.50
2018-04-22T07:35:08.228Z,15.50
2018-04-22T07:35:39.893Z,21.12
2018-04-22T07:36:11.530Z,21.12
2018-04-22T07:36:43.182Z,21.12
2018-04-22T07:37:14.815Z,21.12
2018-04-22T07:37:46.449Z,21.12
2018-04-22T07:38:18.089Z,21.12
2018-04-22T07:38:49.737Z,21.12
2018-04-22T07:39:21.355Z,21.12
2018-04-22T07:39:52.960Z,21.12
2018-04-22T07:40:24.572Z,21.12
2018-04-22T07:40:56.193Z,21.12
2018-04-22T07:41:27.810Z,21.12
2018-04-22T07:41:59.422Z,21.12
2018-04-22T07:52:21.110Z,21.12
2018-04-22T07:52:52.795Z,21.12
2018-04-22T07:53:24.480Z,21.12
2018-04-22T07:53:56.078Z,21.12
2018-04-22T07:54:27.706Z,21.12
2018-04-22T07:54:59.337Z,21.12
2018-04-22T07:55:30.982Z,21.12
2018-04-22T07:56:02.618Z,21.12
2018-04-22T07:56:34.242Z,21.12
2018-04-22T07:57:05.872Z,21.12
2018-04-22T07:57:37.527Z,21.12
2018-04-22T07:58:09.152Z,21.12
2018-04-22T07:58:40.797Z,21.12
2018-04-22T07:59:12.436Z,21.12
2018-04-22T07:59:44.072Z,21.12
2018-04-22T08:00:15.712Z,21.12
2018-04-22T08:00:47.336Z,21.12
2018-04-22T08:01:18.963Z,21.12
2018-04-22T08:01:50.597Z,21.12
2018-04-22T08:02:22.216Z,21.12
2018-04-22T08:02:53.843Z,21.12
2018-04-22T08:03:25.456Z,21.12
2018-04-22T08:03:57.070Z,21.12
2018-04-22T08:04:28.712Z,21.12
2018-04-22T08:05:00.347Z,21.12
2018-04-22T08:05:31.946Z,21.12
2018-04-22T08:06:03.616Z,21.12
2018-04-22T08:06:35.240Z,21.12
2018-04-22T08:07:06.868Z,23.12
2018-04-22T08:07:38.484Z,23.12
2018-04-22T08:08:10.112Z,23.12
2018-04-22T08:08:41.750Z,23.12
2018-04-22T08:09:13.390Z,23.12
2018-04-22T08:09:45.048Z,23.12
2018-04-22T08:10:16.803Z,23.12
2018-04-22T08:10:48.393Z,23.12
2018-04-22T08:11:20.014Z,23.12
2018-04-22T08:11:51.628Z,23.12
2018-04-22T08:12:23.331Z,23.12
2018-04-22T08:12:54.982Z,23.12
2018-04-22T08:13:26.620Z,23.12
2018-04-22T08:13:58.252Z,23.12
2018-04-22T08:14:29.908Z,23.12
2018-04-22T08:15:01.556Z,23.12
2018-04-22T08:15:33.221Z,23.12
2018-04-22T08:16:04.864Z,23.12
2018-04-22T08:16:36.496Z,23.12
2018-04-22T08:17:08.130Z,23.12